sensor_id;sensor_type;location;lat;lon;timestamp;temperature;humidity
2611;DHT22;5612;51.134;17.058;2022-10-13T00:01:24;7.40;99.90
2611;DHT22;5612;51.134;17.058;2022-10-13T00:03:55;7.40;99.90
2611;DHT22;5612;51.134;17.058;2022-10-13T00:06:25;7.30;99.90
2611;DHT22;5612;51.134;17.058;2022-10-13T00:08:54;7.30;99.90
2611;DHT22;5612;51.134;17.058;2022-10-13T00:11:24;7.30;99.90
2611;DHT22;5612;51.134;17.058;2022-10-13T00:13:55;7.20;1.00
2611;DHT22;5612;51.134;17.058;2022-10-13T00:16:25;7.30;1.00
2611;DHT22;5612;51.134;17.058;2022-10-13T00:18:56;7.30;99.90
2611;DHT22;5612;51.134;17.058;2022-10-13T00:21:26;7.30;99.90
2611;DHT22;5612;51.134;17.058;2022-10-13T00:23:55;7.20;99.90
2611;DHT22;5612;51.134;17.058;2022-10-13T00:26:25;7.20;99.90
2611;DHT22;5612;51.134;17.058;2022-10-13T00:28:54;7.20;99.90
2611;DHT22;5612;51.134;17.058;2022-10-13T00:31:26;7.20;99.90
2611;DHT22;5612;51.134;17.058;2022-10-13T00:33:58;7.10;99.90
2611;DHT22;5612;51.134;17.058;2022-10-13T00:36:28;7.10;99.90
2611;DHT22;5612;51.134;17.058;2022-10-13T00:38:57;7.10;99.90
2611;DHT22;5612;51.134;17.058;2022-10-13T00:41:26;7.10;99.90
2611;DHT22;5612;51.134;17.058;2022-10-13T00:43:58;7.00;99.90
2611;DHT22;5612;51.134;17.058;2022-10-13T00:46:29;7.10;99.90
2611;DHT22;5612;51.134;17.058;2022-10-13T00:49:01;7.00;99.90
2611;DHT22;5612;51.134;17.058;2022-10-13T00:51:33;7.00;99.90
2611;DHT22;5612;51.134;17.058;2022-10-13T00:54:05;6.90;1.00
2611;DHT22;5612;51.134;17.058;2022-10-13T00:56:35;6.90;1.00
2611;DHT22;5612;51.134;17.058;2022-10-13T00:59:10;6.90;1.00
2611;DHT22;5612;51.134;17.058;2022-10-13T01:01:41;6.90;1.00
2611;DHT22;5612;51.134;17.058;2022-10-13T01:04:11;6.80;1.00
2611;DHT22;5612;51.134;17.058;2022-10-13T01:06:40;6.80;1.00
2611;DHT22;5612;51.134;17.058;2022-10-13T01:09:09;6.80;1.00
2611;DHT22;5612;51.134;17.058;2022-10-13T01:11:50;6.80;1.00
2611;DHT22;5612;51.134;17.058;2022-10-13T01:14:26;6.80;1.00
2611;DHT22;5612;51.134;17.058;2022-10-13T01:17:01;6.80;99.90
2611;DHT22;5612;51.134;17.058;2022-10-13T01:22:50;6.80;99.90
2611;DHT22;5612;51.134;17.058;2022-10-13T01:25:37;6.80;99.90
2611;DHT22;5612;51.134;17.058;2022-10-13T01:31:10;6.80;99.90
2611;DHT22;5612;51.134;17.058;2022-10-13T01:33:46;6.80;99.90
2611;DHT22;5612;51.134;17.058;2022-10-13T01:36:24;6.80;99.90
2611;DHT22;5612;51.134;17.058;2022-10-13T01:38:58;6.80;99.90
2611;DHT22;5612;51.134;17.058;2022-10-13T01:41:32;6.70;1.00
2611;DHT22;5612;51.134;17.058;2022-10-13T01:44:09;6.70;1.00
2611;DHT22;5612;51.134;17.058;2022-10-13T01:46:45;6.70;1.00
2611;DHT22;5612;51.134;17.058;2022-10-13T01:49:16;6.80;1.00
2611;DHT22;5612;51.134;17.058;2022-10-13T01:51:47;6.80;1.00
2611;DHT22;5612;51.134;17.058;2022-10-13T01:54:16;6.70;1.00
2611;DHT22;5612;51.134;17.058;2022-10-13T01:56:51;6.70;99.90
2611;DHT22;5612;51.134;17.058;2022-10-13T01:59:22;6.70;1.00
2611;DHT22;5612;51.134;17.058;2022-10-13T02:02:01;6.70;1.00
2611;DHT22;5612;51.134;17.058;2022-10-13T02:04:42;6.60;1.00
2611;DHT22;5612;51.134;17.058;2022-10-13T02:07:18;6.70;1.00
2611;DHT22;5612;51.134;17.058;2022-10-13T02:09:54;6.60;1.00
2611;DHT22;5612;51.134;17.058;2022-10-13T02:12:29;6.50;1.00
2611;DHT22;5612;51.134;17.058;2022-10-13T02:14:59;6.50;1.00
2611;DHT22;5612;51.134;17.058;2022-10-13T02:17:30;6.50;1.00
2611;DHT22;5612;51.134;17.058;2022-10-13T02:19:59;6.50;1.00
2611;DHT22;5612;51.134;17.058;2022-10-13T02:22:32;6.50;1.00
2611;DHT22;5612;51.134;17.058;2022-10-13T02:25:02;6.40;1.00
2611;DHT22;5612;51.134;17.058;2022-10-13T02:27:31;6.30;1.00
2611;DHT22;5612;51.134;17.058;2022-10-13T02:29:59;6.30;1.00
2611;DHT22;5612;51.134;17.058;2022-10-13T02:32:30;6.40;1.00
2611;DHT22;5612;51.134;17.058;2022-10-13T02:34:58;6.40;1.00
2611;DHT22;5612;51.134;17.058;2022-10-13T02:37:27;6.40;1.00
2611;DHT22;5612;51.134;17.058;2022-10-13T02:39:56;6.50;1.00
2611;DHT22;5612;51.134;17.058;2022-10-13T02:42:24;6.50;1.00
2611;DHT22;5612;51.134;17.058;2022-10-13T02:44:53;6.40;1.00
2611;DHT22;5612;51.134;17.058;2022-10-13T02:47:22;6.50;1.00
2611;DHT22;5612;51.134;17.058;2022-10-13T02:49:52;6.40;1.00
2611;DHT22;5612;51.134;17.058;2022-10-13T02:52:20;6.40;1.00
2611;DHT22;5612;51.134;17.058;2022-10-13T02:54:49;6.30;1.00
2611;DHT22;5612;51.134;17.058;2022-10-13T02:57:18;6.30;1.00
2611;DHT22;5612;51.134;17.058;2022-10-13T02:59:47;6.30;1.00
2611;DHT22;5612;51.134;17.058;2022-10-13T03:02:16;6.30;1.00
2611;DHT22;5612;51.134;17.058;2022-10-13T03:04:47;6.30;1.00
2611;DHT22;5612;51.134;17.058;2022-10-13T03:07:17;6.30;1.00
2611;DHT22;5612;51.134;17.058;2022-10-13T03:09:46;6.30;1.00
2611;DHT22;5612;51.134;17.058;2022-10-13T03:12:14;6.30;1.00
2611;DHT22;5612;51.134;17.058;2022-10-13T03:14:44;6.30;1.00
2611;DHT22;5612;51.134;17.058;2022-10-13T03:17:12;6.30;1.00
2611;DHT22;5612;51.134;17.058;2022-10-13T03:19:41;6.30;1.00
2611;DHT22;5612;51.134;17.058;2022-10-13T03:22:10;6.10;1.00
2611;DHT22;5612;51.134;17.058;2022-10-13T03:24:43;6.10;1.00
2611;DHT22;5612;51.134;17.058;2022-10-13T03:27:11;6.20;1.00
2611;DHT22;5612;51.134;17.058;2022-10-13T03:29:40;6.10;1.00
2611;DHT22;5612;51.134;17.058;2022-10-13T03:32:09;6.10;1.00
2611;DHT22;5612;51.134;17.058;2022-10-13T03:34:37;6.10;1.00
2611;DHT22;5612;51.134;17.058;2022-10-13T03:37:06;6.10;1.00
2611;DHT22;5612;51.134;17.058;2022-10-13T03:39:35;6.20;1.00
2611;DHT22;5612;51.134;17.058;2022-10-13T03:42:05;6.10;1.00
2611;DHT22;5612;51.134;17.058;2022-10-13T03:44:34;6.00;1.00
2611;DHT22;5612;51.134;17.058;2022-10-13T03:47:02;6.00;1.00
2611;DHT22;5612;51.134;17.058;2022-10-13T03:49:31;6.00;1.00
2611;DHT22;5612;51.134;17.058;2022-10-13T03:52:00;6.10;1.00
2611;DHT22;5612;51.134;17.058;2022-10-13T03:54:28;6.10;1.00
2611;DHT22;5612;51.134;17.058;2022-10-13T03:56:57;6.10;1.00
2611;DHT22;5612;51.134;17.058;2022-10-13T03:59:27;6.10;1.00
2611;DHT22;5612;51.134;17.058;2022-10-13T04:02:02;6.10;1.00
2611;DHT22;5612;51.134;17.058;2022-10-13T04:04:31;6.10;1.00
2611;DHT22;5612;51.134;17.058;2022-10-13T04:07:00;6.10;1.00
2611;DHT22;5612;51.134;17.058;2022-10-13T04:09:29;6.10;1.00
2611;DHT22;5612;51.134;17.058;2022-10-13T04:11:58;6.10;1.00
2611;DHT22;5612;51.134;17.058;2022-10-13T04:14:28;6.10;1.00
2611;DHT22;5612;51.134;17.058;2022-10-13T04:16:56;6.10;1.00
2611;DHT22;5612;51.134;17.058;2022-10-13T04:19:25;6.00;1.00
2611;DHT22;5612;51.134;17.058;2022-10-13T04:21:54;6.10;1.00
2611;DHT22;5612;51.134;17.058;2022-10-13T04:24:23;6.00;1.00
2611;DHT22;5612;51.134;17.058;2022-10-13T04:26:51;6.00;1.00
2611;DHT22;5612;51.134;17.058;2022-10-13T04:29:20;5.90;1.00
2611;DHT22;5612;51.134;17.058;2022-10-13T04:31:51;5.90;1.00
2611;DHT22;5612;51.134;17.058;2022-10-13T04:34:19;5.90;1.00
2611;DHT22;5612;51.134;17.058;2022-10-13T04:36:49;5.90;1.00
2611;DHT22;5612;51.134;17.058;2022-10-13T04:39:17;5.90;1.00
2611;DHT22;5612;51.134;17.058;2022-10-13T04:41:46;5.80;1.00
2611;DHT22;5612;51.134;17.058;2022-10-13T04:44:15;5.80;5.50
2611;DHT22;5612;51.134;17.058;2022-10-13T04:46:44;5.90;1.00
2611;DHT22;5612;51.134;17.058;2022-10-13T04:49:15;5.80;4.30
2611;DHT22;5612;51.134;17.058;2022-10-13T04:51:44;5.80;17.60
2611;DHT22;5612;51.134;17.058;2022-10-13T04:54:12;5.70;26.70
2611;DHT22;5612;51.134;17.058;2022-10-13T04:56:43;5.70;46.90
2611;DHT22;5612;51.134;17.058;2022-10-13T04:59:12;5.80;27.50
2611;DHT22;5612;51.134;17.058;2022-10-13T05:01:41;5.80;20.00
2611;DHT22;5612;51.134;17.058;2022-10-13T05:04:10;5.80;11.20
2611;DHT22;5612;51.134;17.058;2022-10-13T05:06:41;5.80;2.30
2611;DHT22;5612;51.134;17.058;2022-10-13T05:09:32;5.80;1.00
2611;DHT22;5612;51.134;17.058;2022-10-13T05:12:01;5.80;1.00
2611;DHT22;5612;51.134;17.058;2022-10-13T05:14:32;5.80;1.00
2611;DHT22;5612;51.134;17.058;2022-10-13T05:17:03;5.80;1.00
2611;DHT22;5612;51.134;17.058;2022-10-13T05:19:31;5.80;1.00
2611;DHT22;5612;51.134;17.058;2022-10-13T05:22:02;5.80;1.00
2611;DHT22;5612;51.134;17.058;2022-10-13T05:24:31;5.70;1.00
2611;DHT22;5612;51.134;17.058;2022-10-13T05:27:04;5.80;1.00
2611;DHT22;5612;51.134;17.058;2022-10-13T05:29:33;5.80;1.00
2611;DHT22;5612;51.134;17.058;2022-10-13T05:32:02;5.80;1.00
2611;DHT22;5612;51.134;17.058;2022-10-13T05:34:31;5.80;4.40
2611;DHT22;5612;51.134;17.058;2022-10-13T05:37:01;5.90;1.00
2611;DHT22;5612;51.134;17.058;2022-10-13T05:39:31;5.90;1.00
2611;DHT22;5612;51.134;17.058;2022-10-13T05:42:00;6.00;1.00
2611;DHT22;5612;51.134;17.058;2022-10-13T05:44:28;6.00;1.00
2611;DHT22;5612;51.134;17.058;2022-10-13T05:46:57;6.00;1.00
2611;DHT22;5612;51.134;17.058;2022-10-13T05:49:33;6.10;1.00
2611;DHT22;5612;51.134;17.058;2022-10-13T05:52:09;6.10;1.00
2611;DHT22;5612;51.134;17.058;2022-10-13T05:54:40;6.20;1.00
2611;DHT22;5612;51.134;17.058;2022-10-13T05:57:13;6.10;1.00
2611;DHT22;5612;51.134;17.058;2022-10-13T05:59:47;6.20;12.80
2611;DHT22;5612;51.134;17.058;2022-10-13T06:02:21;6.10;13.20
2611;DHT22;5612;51.134;17.058;2022-10-13T06:04:53;6.20;12.50
2611;DHT22;5612;51.134;17.058;2022-10-13T06:07:25;6.30;1.00
2611;DHT22;5612;51.134;17.058;2022-10-13T06:09:54;6.40;1.00
2611;DHT22;5612;51.134;17.058;2022-10-13T06:12:24;6.30;1.00
2611;DHT22;5612;51.134;17.058;2022-10-13T06:14:52;6.30;1.00
2611;DHT22;5612;51.134;17.058;2022-10-13T06:17:21;6.40;1.00
2611;DHT22;5612;51.134;17.058;2022-10-13T06:19:50;6.60;1.00
2611;DHT22;5612;51.134;17.058;2022-10-13T06:22:19;6.60;1.00
2611;DHT22;5612;51.134;17.058;2022-10-13T06:24:50;6.70;1.00
2611;DHT22;5612;51.134;17.058;2022-10-13T06:27:21;6.80;1.00
2611;DHT22;5612;51.134;17.058;2022-10-13T06:29:50;6.90;1.00
2611;DHT22;5612;51.134;17.058;2022-10-13T06:32:18;6.90;1.00
2611;DHT22;5612;51.134;17.058;2022-10-13T06:34:48;7.00;1.00
2611;DHT22;5612;51.134;17.058;2022-10-13T06:37:17;7.00;1.00
2611;DHT22;5612;51.134;17.058;2022-10-13T06:39:54;7.20;1.00
2611;DHT22;5612;51.134;17.058;2022-10-13T06:42:25;7.20;1.00
2611;DHT22;5612;51.134;17.058;2022-10-13T06:44:57;7.40;1.00
2611;DHT22;5612;51.134;17.058;2022-10-13T06:47:25;7.40;99.90
2611;DHT22;5612;51.134;17.058;2022-10-13T06:49:56;7.50;1.00
2611;DHT22;5612;51.134;17.058;2022-10-13T06:52:26;7.60;1.00
2611;DHT22;5612;51.134;17.058;2022-10-13T06:54:56;7.60;99.90
2611;DHT22;5612;51.134;17.058;2022-10-13T06:57:25;7.70;99.90
2611;DHT22;5612;51.134;17.058;2022-10-13T06:59:54;7.80;99.90
2611;DHT22;5612;51.134;17.058;2022-10-13T07:02:23;7.90;99.90
2611;DHT22;5612;51.134;17.058;2022-10-13T07:04:52;8.00;99.90
2611;DHT22;5612;51.134;17.058;2022-10-13T07:07:20;8.10;99.90
2611;DHT22;5612;51.134;17.058;2022-10-13T07:09:49;8.60;99.90
2611;DHT22;5612;51.134;17.058;2022-10-13T07:12:19;9.50;1.00
2611;DHT22;5612;51.134;17.058;2022-10-13T07:14:49;10.50;1.00
2611;DHT22;5612;51.134;17.058;2022-10-13T07:17:18;11.60;99.90
2611;DHT22;5612;51.134;17.058;2022-10-13T07:19:47;12.60;99.90
2611;DHT22;5612;51.134;17.058;2022-10-13T07:22:18;13.50;1.00
2611;DHT22;5612;51.134;17.058;2022-10-13T07:24:47;14.60;1.00
2611;DHT22;5612;51.134;17.058;2022-10-13T07:27:16;15.20;1.00
2611;DHT22;5612;51.134;17.058;2022-10-13T07:29:46;16.00;1.00
2611;DHT22;5612;51.134;17.058;2022-10-13T07:32:15;16.80;1.00
2611;DHT22;5612;51.134;17.058;2022-10-13T07:34:44;17.40;1.00
2611;DHT22;5612;51.134;17.058;2022-10-13T07:37:13;18.40;1.00
2611;DHT22;5612;51.134;17.058;2022-10-13T07:39:41;18.70;1.00
2611;DHT22;5612;51.134;17.058;2022-10-13T07:42:11;19.20;1.00
2611;DHT22;5612;51.134;17.058;2022-10-13T07:44:39;19.80;1.00
2611;DHT22;5612;51.134;17.058;2022-10-13T07:47:10;20.20;1.00
2611;DHT22;5612;51.134;17.058;2022-10-13T07:49:43;20.80;1.00
2611;DHT22;5612;51.134;17.058;2022-10-13T07:52:13;21.40;1.00
2611;DHT22;5612;51.134;17.058;2022-10-13T07:54:43;22.00;1.00
2611;DHT22;5612;51.134;17.058;2022-10-13T07:57:12;22.40;1.00
2611;DHT22;5612;51.134;17.058;2022-10-13T07:59:41;22.80;1.00
2611;DHT22;5612;51.134;17.058;2022-10-13T08:02:11;23.40;1.00
2611;DHT22;5612;51.134;17.058;2022-10-13T08:04:40;24.20;1.00
2611;DHT22;5612;51.134;17.058;2022-10-13T08:07:09;24.20;1.00
2611;DHT22;5612;51.134;17.058;2022-10-13T08:09:37;24.20;1.00
2611;DHT22;5612;51.134;17.058;2022-10-13T08:12:06;24.30;1.00
2611;DHT22;5612;51.134;17.058;2022-10-13T08:14:35;24.40;1.00
2611;DHT22;5612;51.134;17.058;2022-10-13T08:17:04;24.40;1.00
2611;DHT22;5612;51.134;17.058;2022-10-13T08:19:34;24.70;1.00
2611;DHT22;5612;51.134;17.058;2022-10-13T08:22:03;25.20;1.00
2611;DHT22;5612;51.134;17.058;2022-10-13T08:24:35;25.70;1.00
2611;DHT22;5612;51.134;17.058;2022-10-13T08:27:04;26.20;1.00
2611;DHT22;5612;51.134;17.058;2022-10-13T08:29:42;26.60;1.00
2611;DHT22;5612;51.134;17.058;2022-10-13T08:32:11;26.10;1.00
2611;DHT22;5612;51.134;17.058;2022-10-13T08:34:41;25.80;1.00
2611;DHT22;5612;51.134;17.058;2022-10-13T08:37:12;26.50;1.00
2611;DHT22;5612;51.134;17.058;2022-10-13T08:39:41;27.00;1.00
2611;DHT22;5612;51.134;17.058;2022-10-13T08:42:16;27.80;1.00
2611;DHT22;5612;51.134;17.058;2022-10-13T08:44:48;27.70;1.00
2611;DHT22;5612;51.134;17.058;2022-10-13T08:47:41;28.30;1.00
2611;DHT22;5612;51.134;17.058;2022-10-13T08:50:14;28.80;1.00
2611;DHT22;5612;51.134;17.058;2022-10-13T08:52:49;29.40;1.00
2611;DHT22;5612;51.134;17.058;2022-10-13T08:55:24;29.60;1.00
2611;DHT22;5612;51.134;17.058;2022-10-13T08:57:53;29.70;1.00
2611;DHT22;5612;51.134;17.058;2022-10-13T09:00:22;29.10;1.00
2611;DHT22;5612;51.134;17.058;2022-10-13T09:02:52;28.80;1.00
2611;DHT22;5612;51.134;17.058;2022-10-13T09:05:30;29.00;1.00
2611;DHT22;5612;51.134;17.058;2022-10-13T09:08:04;29.60;1.00
2611;DHT22;5612;51.134;17.058;2022-10-13T09:10:46;29.50;1.00
2611;DHT22;5612;51.134;17.058;2022-10-13T09:13:15;29.90;1.00
2611;DHT22;5612;51.134;17.058;2022-10-13T09:15:45;30.10;1.00
2611;DHT22;5612;51.134;17.058;2022-10-13T09:18:14;30.50;1.00
2611;DHT22;5612;51.134;17.058;2022-10-13T09:20:45;30.80;1.00
2611;DHT22;5612;51.134;17.058;2022-10-13T09:23:18;30.30;1.00
2611;DHT22;5612;51.134;17.058;2022-10-13T09:25:49;30.70;1.00
2611;DHT22;5612;51.134;17.058;2022-10-13T09:28:21;30.90;1.00
2611;DHT22;5612;51.134;17.058;2022-10-13T09:31:01;30.70;1.00
2611;DHT22;5612;51.134;17.058;2022-10-13T09:33:35;31.60;1.00
2611;DHT22;5612;51.134;17.058;2022-10-13T09:36:13;32.00;1.00
2611;DHT22;5612;51.134;17.058;2022-10-13T09:38:45;32.40;1.00
2611;DHT22;5612;51.134;17.058;2022-10-13T09:41:32;32.30;1.00
2611;DHT22;5612;51.134;17.058;2022-10-13T09:44:09;32.30;1.00
2611;DHT22;5612;51.134;17.058;2022-10-13T09:46:48;32.90;1.00
2611;DHT22;5612;51.134;17.058;2022-10-13T09:49:32;34.00;1.00
2611;DHT22;5612;51.134;17.058;2022-10-13T09:52:05;34.10;1.00
2611;DHT22;5612;51.134;17.058;2022-10-13T09:54:40;34.50;1.00
2611;DHT22;5612;51.134;17.058;2022-10-13T09:57:15;33.00;1.00
2611;DHT22;5612;51.134;17.058;2022-10-13T09:59:47;32.40;1.00
2611;DHT22;5612;51.134;17.058;2022-10-13T10:02:27;32.80;1.00
2611;DHT22;5612;51.134;17.058;2022-10-13T10:05:04;33.50;1.00
2611;DHT22;5612;51.134;17.058;2022-10-13T10:07:39;33.90;1.00
2611;DHT22;5612;51.134;17.058;2022-10-13T10:10:20;34.30;1.00
2611;DHT22;5612;51.134;17.058;2022-10-13T10:13:11;33.70;1.00
2611;DHT22;5612;51.134;17.058;2022-10-13T10:15:52;34.10;1.00
2611;DHT22;5612;51.134;17.058;2022-10-13T10:18:28;34.60;1.00
2611;DHT22;5612;51.134;17.058;2022-10-13T10:21:05;35.40;1.00
2611;DHT22;5612;51.134;17.058;2022-10-13T10:23:43;34.40;1.00
2611;DHT22;5612;51.134;17.058;2022-10-13T10:26:16;34.30;1.00
2611;DHT22;5612;51.134;17.058;2022-10-13T10:29:08;33.70;1.00
2611;DHT22;5612;51.134;17.058;2022-10-13T10:31:52;33.10;1.00
2611;DHT22;5612;51.134;17.058;2022-10-13T10:34:30;33.30;1.00
2611;DHT22;5612;51.134;17.058;2022-10-13T10:37:18;33.40;1.00
2611;DHT22;5612;51.134;17.058;2022-10-13T10:40:02;33.30;1.00
2611;DHT22;5612;51.134;17.058;2022-10-13T10:42:44;32.90;1.00
2611;DHT22;5612;51.134;17.058;2022-10-13T10:45:20;33.00;1.00
2611;DHT22;5612;51.134;17.058;2022-10-13T10:47:53;33.00;1.00
2611;DHT22;5612;51.134;17.058;2022-10-13T10:50:24;33.00;1.00
2611;DHT22;5612;51.134;17.058;2022-10-13T10:53:00;32.70;1.00
2611;DHT22;5612;51.134;17.058;2022-10-13T10:55:36;33.10;1.00
2611;DHT22;5612;51.134;17.058;2022-10-13T10:58:17;33.50;1.00
2611;DHT22;5612;51.134;17.058;2022-10-13T11:00:56;33.30;1.00
2611;DHT22;5612;51.134;17.058;2022-10-13T11:03:39;33.50;1.00
2611;DHT22;5612;51.134;17.058;2022-10-13T11:06:24;34.20;1.00
2611;DHT22;5612;51.134;17.058;2022-10-13T11:08:53;34.90;1.00
2611;DHT22;5612;51.134;17.058;2022-10-13T11:11:32;33.80;1.00
2611;DHT22;5612;51.134;17.058;2022-10-13T11:14:24;34.50;1.00
2611;DHT22;5612;51.134;17.058;2022-10-13T11:17:17;35.20;1.00
2611;DHT22;5612;51.134;17.058;2022-10-13T11:19:48;34.50;1.00
2611;DHT22;5612;51.134;17.058;2022-10-13T11:22:20;35.30;1.00
2611;DHT22;5612;51.134;17.058;2022-10-13T11:25:07;36.40;1.00
2611;DHT22;5612;51.134;17.058;2022-10-13T11:31:47;37.20;1.00
2611;DHT22;5612;51.134;17.058;2022-10-13T11:34:28;37.10;1.00
2611;DHT22;5612;51.134;17.058;2022-10-13T11:37:00;36.30;1.00
2611;DHT22;5612;51.134;17.058;2022-10-13T11:39:54;35.40;1.00
2611;DHT22;5612;51.134;17.058;2022-10-13T11:46:02;34.50;1.00
2611;DHT22;5612;51.134;17.058;2022-10-13T11:48:58;35.80;1.00
2611;DHT22;5612;51.134;17.058;2022-10-13T11:51:35;36.30;1.00
2611;DHT22;5612;51.134;17.058;2022-10-13T11:54:21;36.10;1.00
2611;DHT22;5612;51.134;17.058;2022-10-13T11:56:53;35.80;1.00
2611;DHT22;5612;51.134;17.058;2022-10-13T11:59:25;36.10;1.00
2611;DHT22;5612;51.134;17.058;2022-10-13T12:01:58;36.60;1.00
2611;DHT22;5612;51.134;17.058;2022-10-13T12:04:33;37.00;1.00
2611;DHT22;5612;51.134;17.058;2022-10-13T12:07:03;35.50;1.00
2611;DHT22;5612;51.134;17.058;2022-10-13T12:09:48;34.60;1.00
2611;DHT22;5612;51.134;17.058;2022-10-13T12:12:19;34.50;1.00
2611;DHT22;5612;51.134;17.058;2022-10-13T12:14:50;35.00;1.00
2611;DHT22;5612;51.134;17.058;2022-10-13T12:17:28;35.40;1.00
2611;DHT22;5612;51.134;17.058;2022-10-13T12:20:00;36.00;1.00
2611;DHT22;5612;51.134;17.058;2022-10-13T12:22:29;35.30;1.00
2611;DHT22;5612;51.134;17.058;2022-10-13T12:25:06;35.20;1.00
2611;DHT22;5612;51.134;17.058;2022-10-13T12:27:46;35.20;1.00
2611;DHT22;5612;51.134;17.058;2022-10-13T12:30:20;36.10;1.00
2611;DHT22;5612;51.134;17.058;2022-10-13T12:32:53;36.40;1.00
2611;DHT22;5612;51.134;17.058;2022-10-13T12:35:29;36.30;1.00
2611;DHT22;5612;51.134;17.058;2022-10-13T12:38:14;36.50;1.00
2611;DHT22;5612;51.134;17.058;2022-10-13T12:40:50;36.20;1.00
2611;DHT22;5612;51.134;17.058;2022-10-13T12:43:27;35.90;1.00
2611;DHT22;5612;51.134;17.058;2022-10-13T12:46:36;35.90;1.00
2611;DHT22;5612;51.134;17.058;2022-10-13T12:49:12;35.80;1.00
2611;DHT22;5612;51.134;17.058;2022-10-13T12:51:42;34.90;1.00
2611;DHT22;5612;51.134;17.058;2022-10-13T12:54:18;35.40;1.00
2611;DHT22;5612;51.134;17.058;2022-10-13T12:56:48;36.40;1.00
2611;DHT22;5612;51.134;17.058;2022-10-13T12:59:23;36.10;1.00
2611;DHT22;5612;51.134;17.058;2022-10-13T13:01:56;36.10;1.00
2611;DHT22;5612;51.134;17.058;2022-10-13T13:04:38;35.10;1.00
2611;DHT22;5612;51.134;17.058;2022-10-13T13:07:29;34.90;1.00
2611;DHT22;5612;51.134;17.058;2022-10-13T13:10:00;34.90;1.00
2611;DHT22;5612;51.134;17.058;2022-10-13T13:12:31;35.30;1.00
2611;DHT22;5612;51.134;17.058;2022-10-13T13:15:31;35.80;1.00
2611;DHT22;5612;51.134;17.058;2022-10-13T13:18:27;35.80;1.00
2611;DHT22;5612;51.134;17.058;2022-10-13T13:21:10;35.90;1.00
2611;DHT22;5612;51.134;17.058;2022-10-13T13:23:40;34.90;1.00
2611;DHT22;5612;51.134;17.058;2022-10-13T13:26:12;34.60;1.00
2611;DHT22;5612;51.134;17.058;2022-10-13T13:28:44;34.10;1.00
2611;DHT22;5612;51.134;17.058;2022-10-13T13:31:15;34.30;1.00
2611;DHT22;5612;51.134;17.058;2022-10-13T13:33:44;33.90;1.00
2611;DHT22;5612;51.134;17.058;2022-10-13T13:36:16;33.50;1.00
2611;DHT22;5612;51.134;17.058;2022-10-13T13:38:45;33.50;1.00
2611;DHT22;5612;51.134;17.058;2022-10-13T13:41:15;34.00;1.00
2611;DHT22;5612;51.134;17.058;2022-10-13T13:43:44;34.50;1.00
2611;DHT22;5612;51.134;17.058;2022-10-13T13:46:16;34.90;1.00
2611;DHT22;5612;51.134;17.058;2022-10-13T13:48:45;34.00;1.00
2611;DHT22;5612;51.134;17.058;2022-10-13T13:51:16;32.70;1.00
2611;DHT22;5612;51.134;17.058;2022-10-13T13:53:45;32.10;1.00
2611;DHT22;5612;51.134;17.058;2022-10-13T13:56:15;31.90;1.00
2611;DHT22;5612;51.134;17.058;2022-10-13T13:58:44;32.10;1.00
2611;DHT22;5612;51.134;17.058;2022-10-13T14:01:13;31.90;1.00
2611;DHT22;5612;51.134;17.058;2022-10-13T14:03:42;32.00;1.00
2611;DHT22;5612;51.134;17.058;2022-10-13T14:06:18;31.80;1.00
2611;DHT22;5612;51.134;17.058;2022-10-13T14:08:46;31.50;1.00
2611;DHT22;5612;51.134;17.058;2022-10-13T14:11:15;31.70;1.00
2611;DHT22;5612;51.134;17.058;2022-10-13T14:13:45;31.60;1.00
2611;DHT22;5612;51.134;17.058;2022-10-13T14:16:16;31.70;1.00
2611;DHT22;5612;51.134;17.058;2022-10-13T14:18:45;32.10;1.00
2611;DHT22;5612;51.134;17.058;2022-10-13T14:21:14;32.20;1.00
2611;DHT22;5612;51.134;17.058;2022-10-13T14:23:44;32.30;1.00
2611;DHT22;5612;51.134;17.058;2022-10-13T14:26:13;31.40;1.00
2611;DHT22;5612;51.134;17.058;2022-10-13T14:28:43;31.00;1.00
2611;DHT22;5612;51.134;17.058;2022-10-13T14:31:12;30.30;1.00
2611;DHT22;5612;51.134;17.058;2022-10-13T14:33:41;29.70;1.00
2611;DHT22;5612;51.134;17.058;2022-10-13T14:36:10;29.70;1.00
2611;DHT22;5612;51.134;17.058;2022-10-13T14:38:39;30.00;1.00
2611;DHT22;5612;51.134;17.058;2022-10-13T14:41:09;30.00;1.00
2611;DHT22;5612;51.134;17.058;2022-10-13T14:43:38;30.00;1.00
2611;DHT22;5612;51.134;17.058;2022-10-13T14:46:07;30.00;1.00
2611;DHT22;5612;51.134;17.058;2022-10-13T14:48:36;29.90;1.00
2611;DHT22;5612;51.134;17.058;2022-10-13T14:51:05;29.60;1.00
2611;DHT22;5612;51.134;17.058;2022-10-13T14:53:35;29.70;1.00
2611;DHT22;5612;51.134;17.058;2022-10-13T14:56:15;29.00;1.00
2611;DHT22;5612;51.134;17.058;2022-10-13T14:58:45;28.70;1.00
2611;DHT22;5612;51.134;17.058;2022-10-13T15:01:14;28.20;1.00
2611;DHT22;5612;51.134;17.058;2022-10-13T15:03:43;27.50;1.00
2611;DHT22;5612;51.134;17.058;2022-10-13T15:06:14;27.30;1.00
2611;DHT22;5612;51.134;17.058;2022-10-13T15:08:43;27.20;1.00
2611;DHT22;5612;51.134;17.058;2022-10-13T15:11:14;26.90;1.00
2611;DHT22;5612;51.134;17.058;2022-10-13T15:13:43;26.30;1.00
2611;DHT22;5612;51.134;17.058;2022-10-13T15:16:15;25.60;1.00
2611;DHT22;5612;51.134;17.058;2022-10-13T15:18:44;25.30;1.00
2611;DHT22;5612;51.134;17.058;2022-10-13T15:21:13;24.90;1.00
2611;DHT22;5612;51.134;17.058;2022-10-13T15:23:43;24.60;1.00
2611;DHT22;5612;51.134;17.058;2022-10-13T15:26:14;24.20;1.00
2611;DHT22;5612;51.134;17.058;2022-10-13T15:28:45;23.70;1.00
2611;DHT22;5612;51.134;17.058;2022-10-13T15:31:15;23.30;1.00
2611;DHT22;5612;51.134;17.058;2022-10-13T15:33:46;23.00;1.00
2611;DHT22;5612;51.134;17.058;2022-10-13T15:36:15;22.80;1.00
2611;DHT22;5612;51.134;17.058;2022-10-13T15:38:44;22.30;1.00
2611;DHT22;5612;51.134;17.058;2022-10-13T15:41:15;22.10;1.00
2611;DHT22;5612;51.134;17.058;2022-10-13T15:43:44;21.90;1.00
2611;DHT22;5612;51.134;17.058;2022-10-13T15:46:15;21.70;1.00
2611;DHT22;5612;51.134;17.058;2022-10-13T15:48:51;21.50;1.00
2611;DHT22;5612;51.134;17.058;2022-10-13T15:51:22;21.20;1.00
2611;DHT22;5612;51.134;17.058;2022-10-13T15:53:53;21.00;1.00
2611;DHT22;5612;51.134;17.058;2022-10-13T15:56:24;21.00;1.00
2611;DHT22;5612;51.134;17.058;2022-10-13T15:58:53;20.80;1.00
2611;DHT22;5612;51.134;17.058;2022-10-13T16:01:22;20.80;1.00
2611;DHT22;5612;51.134;17.058;2022-10-13T16:03:52;20.60;1.00
2611;DHT22;5612;51.134;17.058;2022-10-13T16:06:21;20.40;1.00
2611;DHT22;5612;51.134;17.058;2022-10-13T16:08:51;20.30;1.00
2611;DHT22;5612;51.134;17.058;2022-10-13T16:11:21;20.30;1.00
2611;DHT22;5612;51.134;17.058;2022-10-13T16:13:52;20.10;1.00
2611;DHT22;5612;51.134;17.058;2022-10-13T16:16:20;20.10;1.00
2611;DHT22;5612;51.134;17.058;2022-10-13T16:18:50;19.90;1.00
2611;DHT22;5612;51.134;17.058;2022-10-13T16:21:21;19.90;1.00
2611;DHT22;5612;51.134;17.058;2022-10-13T16:23:52;19.80;1.00
2611;DHT22;5612;51.134;17.058;2022-10-13T16:26:22;19.70;1.00
2611;DHT22;5612;51.134;17.058;2022-10-13T16:28:54;19.60;1.00
2611;DHT22;5612;51.134;17.058;2022-10-13T16:31:24;19.40;1.00
2611;DHT22;5612;51.134;17.058;2022-10-13T16:33:53;19.40;1.00
2611;DHT22;5612;51.134;17.058;2022-10-13T16:36:22;19.20;1.00
2611;DHT22;5612;51.134;17.058;2022-10-13T16:38:52;19.20;1.00
2611;DHT22;5612;51.134;17.058;2022-10-13T16:41:22;19.10;1.00
2611;DHT22;5612;51.134;17.058;2022-10-13T16:43:51;18.90;1.00
2611;DHT22;5612;51.134;17.058;2022-10-13T16:46:21;18.60;1.00
2611;DHT22;5612;51.134;17.058;2022-10-13T16:48:50;18.50;1.00
2611;DHT22;5612;51.134;17.058;2022-10-13T16:51:21;18.40;1.00
2611;DHT22;5612;51.134;17.058;2022-10-13T16:53:52;18.30;1.00